sensor_id;sensor_type;location;lat;lon;timestamp;P1;durP1;ratioP1;P2;durP2;ratioP2
59685;SDS011;45554;51.096;16.976;2022-08-25T00:01:59;23.50;;;19.70;;
59685;SDS011;45554;51.096;16.976;2022-08-25T00:04:49;27.20;;;19.80;;
59685;SDS011;45554;51.096;16.976;2022-08-25T00:07:22;22.60;;;17.80;;
59685;SDS011;45554;51.096;16.976;2022-08-25T00:09:50;24.70;;;17.50;;
59685;SDS011;45554;51.096;16.976;2022-08-25T00:12:18;24.40;;;18.10;;
59685;SDS011;45554;51.096;16.976;2022-08-25T00:19:47;26.20;;;18.10;;
59685;SDS011;45554;51.096;16.976;2022-08-25T00:22:17;28.60;;;19.50;;
59685;SDS011;45554;51.096;16.976;2022-08-25T00:24:48;26.70;;;19.30;;
59685;SDS011;45554;51.096;16.976;2022-08-25T00:27:16;25.60;;;18.60;;
59685;SDS011;45554;51.096;16.976;2022-08-25T00:29:45;25.90;;;19.10;;
59685;SDS011;45554;51.096;16.976;2022-08-25T00:32:13;25.50;;;19.40;;
59685;SDS011;45554;51.096;16.976;2022-08-25T00:34:42;26.30;;;19.50;;
59685;SDS011;45554;51.096;16.976;2022-08-25T00:37:23;25.00;;;18.20;;
59685;SDS011;45554;51.096;16.976;2022-08-25T00:39:51;21.50;;;17.90;;
59685;SDS011;45554;51.096;16.976;2022-08-25T00:42:20;30.90;;;19.40;;
59685;SDS011;45554;51.096;16.976;2022-08-25T00:44:48;27.50;;;19.40;;
59685;SDS011;45554;51.096;16.976;2022-08-25T00:47:16;28.50;;;19.30;;
59685;SDS011;45554;51.096;16.976;2022-08-25T00:49:49;28.00;;;18.60;;
59685;SDS011;45554;51.096;16.976;2022-08-25T00:52:25;24.10;;;19.30;;
59685;SDS011;45554;51.096;16.976;2022-08-25T00:55:01;24.30;;;20.20;;
59685;SDS011;45554;51.096;16.976;2022-08-25T00:57:37;24.90;;;21.00;;
59685;SDS011;45554;51.096;16.976;2022-08-25T01:00:15;26.20;;;20.10;;
59685;SDS011;45554;51.096;16.976;2022-08-25T01:02:49;24.60;;;19.70;;
59685;SDS011;45554;51.096;16.976;2022-08-25T01:05:18;29.10;;;20.10;;
59685;SDS011;45554;51.096;16.976;2022-08-25T01:10:18;24.90;;;20.10;;
59685;SDS011;45554;51.096;16.976;2022-08-25T01:12:49;26.00;;;19.60;;
59685;SDS011;45554;51.096;16.976;2022-08-25T01:15:21;24.00;;;19.60;;
59685;SDS011;45554;51.096;16.976;2022-08-25T01:17:52;23.10;;;18.80;;
59685;SDS011;45554;51.096;16.976;2022-08-25T01:20:23;26.00;;;19.00;;
59685;SDS011;45554;51.096;16.976;2022-08-25T01:22:56;27.40;;;19.30;;
59685;SDS011;45554;51.096;16.976;2022-08-25T01:25:47;23.00;;;19.40;;
59685;SDS011;45554;51.096;16.976;2022-08-25T01:28:35;26.30;;;21.00;;
59685;SDS011;45554;51.096;16.976;2022-08-25T01:31:06;26.40;;;21.30;;
59685;SDS011;45554;51.096;16.976;2022-08-25T01:33:51;27.20;;;20.40;;
59685;SDS011;45554;51.096;16.976;2022-08-25T01:41:21;31.50;;;20.70;;
59685;SDS011;45554;51.096;16.976;2022-08-25T01:44:16;26.40;;;21.00;;
59685;SDS011;45554;51.096;16.976;2022-08-25T01:46:45;26.20;;;21.10;;
59685;SDS011;45554;51.096;16.976;2022-08-25T01:49:14;28.20;;;20.40;;
59685;SDS011;45554;51.096;16.976;2022-08-25T01:51:43;31.50;;;20.80;;
59685;SDS011;45554;51.096;16.976;2022-08-25T01:54:15;25.10;;;19.60;;
59685;SDS011;45554;51.096;16.976;2022-08-25T01:56:46;26.20;;;20.40;;
59685;SDS011;45554;51.096;16.976;2022-08-25T01:59:21;28.50;;;21.80;;
59685;SDS011;45554;51.096;16.976;2022-08-25T02:01:51;27.20;;;21.00;;
59685;SDS011;45554;51.096;16.976;2022-08-25T02:04:27;27.00;;;20.70;;
59685;SDS011;45554;51.096;16.976;2022-08-25T02:07:00;24.30;;;20.10;;
59685;SDS011;45554;51.096;16.976;2022-08-25T02:09:31;28.60;;;21.50;;
59685;SDS011;45554;51.096;16.976;2022-08-25T02:12:01;32.50;;;21.40;;
59685;SDS011;45554;51.096;16.976;2022-08-25T02:14:29;29.10;;;21.40;;
59685;SDS011;45554;51.096;16.976;2022-08-25T02:17:05;30.60;;;21.90;;
59685;SDS011;45554;51.096;16.976;2022-08-25T02:19:36;27.30;;;20.40;;
59685;SDS011;45554;51.096;16.976;2022-08-25T02:22:05;31.50;;;21.80;;
59685;SDS011;45554;51.096;16.976;2022-08-25T02:24:35;26.60;;;21.30;;
59685;SDS011;45554;51.096;16.976;2022-08-25T02:27:04;27.80;;;21.20;;
59685;SDS011;45554;51.096;16.976;2022-08-25T02:29:36;28.80;;;21.70;;
59685;SDS011;45554;51.096;16.976;2022-08-25T02:32:05;30.10;;;21.90;;
59685;SDS011;45554;51.096;16.976;2022-08-25T02:34:37;29.90;;;21.80;;
59685;SDS011;45554;51.096;16.976;2022-08-25T02:37:18;29.50;;;22.20;;
59685;SDS011;45554;51.096;16.976;2022-08-25T02:39:48;27.30;;;21.50;;
59685;SDS011;45554;51.096;16.976;2022-08-25T02:42:16;27.40;;;22.10;;
59685;SDS011;45554;51.096;16.976;2022-08-25T02:44:45;27.70;;;21.10;;
59685;SDS011;45554;51.096;16.976;2022-08-25T02:47:16;28.10;;;21.50;;
59685;SDS011;45554;51.096;16.976;2022-08-25T02:49:53;27.10;;;21.20;;
59685;SDS011;45554;51.096;16.976;2022-08-25T02:52:22;31.70;;;23.90;;
59685;SDS011;45554;51.096;16.976;2022-08-25T02:54:51;29.30;;;21.60;;
59685;SDS011;45554;51.096;16.976;2022-08-25T02:57:20;30.70;;;22.30;;
59685;SDS011;45554;51.096;16.976;2022-08-25T02:59:50;29.40;;;23.50;;
59685;SDS011;45554;51.096;16.976;2022-08-25T03:02:18;29.70;;;23.50;;
59685;SDS011;45554;51.096;16.976;2022-08-25T03:04:47;26.80;;;22.00;;
59685;SDS011;45554;51.096;16.976;2022-08-25T03:09:50;30.70;;;21.90;;
59685;SDS011;45554;51.096;16.976;2022-08-25T03:12:20;31.50;;;24.40;;
59685;SDS011;45554;51.096;16.976;2022-08-25T03:14:50;31.60;;;23.50;;
59685;SDS011;45554;51.096;16.976;2022-08-25T03:17:27;31.70;;;22.90;;
59685;SDS011;45554;51.096;16.976;2022-08-25T03:19:56;32.80;;;23.00;;
59685;SDS011;45554;51.096;16.976;2022-08-25T03:22:26;33.70;;;24.00;;
59685;SDS011;45554;51.096;16.976;2022-08-25T03:24:56;34.40;;;22.90;;
59685;SDS011;45554;51.096;16.976;2022-08-25T03:27:51;34.90;;;24.40;;
59685;SDS011;45554;51.096;16.976;2022-08-25T03:30:22;32.10;;;25.00;;
59685;SDS011;45554;51.096;16.976;2022-08-25T03:32:53;30.70;;;22.50;;
59685;SDS011;45554;51.096;16.976;2022-08-25T03:35:22;30.30;;;22.80;;
59685;SDS011;45554;51.096;16.976;2022-08-25T03:37:53;29.80;;;23.20;;
59685;SDS011;45554;51.096;16.976;2022-08-25T03:40:24;28.90;;;21.30;;
59685;SDS011;45554;51.096;16.976;2022-08-25T03:42:54;30.50;;;22.10;;
59685;SDS011;45554;51.096;16.976;2022-08-25T03:45:26;30.20;;;20.60;;
59685;SDS011;45554;51.096;16.976;2022-08-25T03:47:59;29.30;;;21.10;;
59685;SDS011;45554;51.096;16.976;2022-08-25T03:50:27;28.00;;;22.60;;
59685;SDS011;45554;51.096;16.976;2022-08-25T03:52:56;28.40;;;20.50;;
59685;SDS011;45554;51.096;16.976;2022-08-25T03:55:26;27.10;;;21.00;;
59685;SDS011;45554;51.096;16.976;2022-08-25T03:57:57;31.20;;;21.20;;
59685;SDS011;45554;51.096;16.976;2022-08-25T04:00:28;25.70;;;20.00;;
59685;SDS011;45554;51.096;16.976;2022-08-25T04:02:57;24.90;;;18.50;;
59685;SDS011;45554;51.096;16.976;2022-08-25T04:05:26;23.40;;;18.00;;
59685;SDS011;45554;51.096;16.976;2022-08-25T04:10:24;20.30;;;17.70;;
59685;SDS011;45554;51.096;16.976;2022-08-25T04:12:51;22.00;;;18.40;;
59685;SDS011;45554;51.096;16.976;2022-08-25T04:15:20;20.20;;;17.10;;
59685;SDS011;45554;51.096;16.976;2022-08-25T04:17:48;22.90;;;18.40;;
59685;SDS011;45554;51.096;16.976;2022-08-25T04:20:20;21.40;;;16.50;;
59685;SDS011;45554;51.096;16.976;2022-08-25T04:22:49;22.20;;;17.50;;
59685;SDS011;45554;51.096;16.976;2022-08-25T04:25:17;22.20;;;17.20;;
59685;SDS011;45554;51.096;16.976;2022-08-25T04:27:47;21.30;;;17.60;;
59685;SDS011;45554;51.096;16.976;2022-08-25T04:30:16;20.70;;;17.20;;
59685;SDS011;45554;51.096;16.976;2022-08-25T04:35:14;28.10;;;19.00;;
59685;SDS011;45554;51.096;16.976;2022-08-25T04:38:04;22.50;;;18.20;;
59685;SDS011;45554;51.096;16.976;2022-08-25T04:40:39;25.80;;;19.50;;
59685;SDS011;45554;51.096;16.976;2022-08-25T04:43:07;26.20;;;19.60;;
59685;SDS011;45554;51.096;16.976;2022-08-25T04:45:37;21.80;;;18.30;;
59685;SDS011;45554;51.096;16.976;2022-08-25T04:48:06;24.20;;;18.30;;
59685;SDS011;45554;51.096;16.976;2022-08-25T04:50:37;25.20;;;19.50;;
59685;SDS011;45554;51.096;16.976;2022-08-25T04:53:06;23.00;;;18.40;;
59685;SDS011;45554;51.096;16.976;2022-08-25T04:55:41;24.80;;;18.80;;
59685;SDS011;45554;51.096;16.976;2022-08-25T04:58:15;24.00;;;18.40;;
59685;SDS011;45554;51.096;16.976;2022-08-25T05:00:43;23.70;;;17.50;;
59685;SDS011;45554;51.096;16.976;2022-08-25T05:03:17;20.30;;;17.80;;
59685;SDS011;45554;51.096;16.976;2022-08-25T05:05:46;24.10;;;18.10;;
59685;SDS011;45554;51.096;16.976;2022-08-25T05:08:15;22.10;;;17.00;;
59685;SDS011;45554;51.096;16.976;2022-08-25T05:10:43;20.60;;;16.90;;
59685;SDS011;45554;51.096;16.976;2022-08-25T05:13:11;23.30;;;18.00;;
59685;SDS011;45554;51.096;16.976;2022-08-25T05:15:40;25.20;;;18.40;;
59685;SDS011;45554;51.096;16.976;2022-08-25T05:18:17;23.90;;;18.50;;
59685;SDS011;45554;51.096;16.976;2022-08-25T05:20:49;26.10;;;18.30;;
59685;SDS011;45554;51.096;16.976;2022-08-25T05:23:18;23.80;;;17.90;;
59685;SDS011;45554;51.096;16.976;2022-08-25T05:25:51;22.60;;;17.20;;
59685;SDS011;45554;51.096;16.976;2022-08-25T05:28:20;24.00;;;17.90;;
59685;SDS011;45554;51.096;16.976;2022-08-25T05:30:49;25.60;;;19.10;;
59685;SDS011;45554;51.096;16.976;2022-08-25T05:33:17;27.00;;;19.00;;
59685;SDS011;45554;51.096;16.976;2022-08-25T05:35:47;26.50;;;19.90;;
59685;SDS011;45554;51.096;16.976;2022-08-25T05:38:17;27.80;;;18.00;;
59685;SDS011;45554;51.096;16.976;2022-08-25T05:40:46;25.90;;;18.70;;
59685;SDS011;45554;51.096;16.976;2022-08-25T05:43:18;26.80;;;19.30;;
59685;SDS011;45554;51.096;16.976;2022-08-25T05:45:47;24.70;;;17.90;;
59685;SDS011;45554;51.096;16.976;2022-08-25T05:48:15;24.60;;;17.60;;
59685;SDS011;45554;51.096;16.976;2022-08-25T05:50:49;26.70;;;18.30;;
59685;SDS011;45554;51.096;16.976;2022-08-25T05:53:21;26.30;;;18.10;;
59685;SDS011;45554;51.096;16.976;2022-08-25T05:55:51;27.30;;;18.20;;
59685;SDS011;45554;51.096;16.976;2022-08-25T05:58:21;25.90;;;17.90;;
59685;SDS011;45554;51.096;16.976;2022-08-25T06:00:50;27.60;;;18.70;;
59685;SDS011;45554;51.096;16.976;2022-08-25T06:03:18;26.50;;;19.60;;
59685;SDS011;45554;51.096;16.976;2022-08-25T06:05:47;24.50;;;19.20;;
59685;SDS011;45554;51.096;16.976;2022-08-25T06:08:15;28.90;;;19.60;;
59685;SDS011;45554;51.096;16.976;2022-08-25T06:10:44;31.20;;;21.60;;
59685;SDS011;45554;51.096;16.976;2022-08-25T06:13:12;30.80;;;20.10;;
59685;SDS011;45554;51.096;16.976;2022-08-25T06:15:40;29.20;;;20.80;;
59685;SDS011;45554;51.096;16.976;2022-08-25T06:18:11;27.10;;;19.40;;
59685;SDS011;45554;51.096;16.976;2022-08-25T06:20:40;27.40;;;18.50;;
59685;SDS011;45554;51.096;16.976;2022-08-25T06:23:08;24.60;;;18.90;;
59685;SDS011;45554;51.096;16.976;2022-08-25T06:25:36;26.20;;;18.80;;
59685;SDS011;45554;51.096;16.976;2022-08-25T06:28:04;25.70;;;18.90;;
59685;SDS011;45554;51.096;16.976;2022-08-25T06:30:32;21.80;;;17.90;;
59685;SDS011;45554;51.096;16.976;2022-08-25T06:33:00;27.00;;;18.80;;
59685;SDS011;45554;51.096;16.976;2022-08-25T06:35:28;26.70;;;18.00;;
59685;SDS011;45554;51.096;16.976;2022-08-25T06:37:56;24.40;;;18.30;;
59685;SDS011;45554;51.096;16.976;2022-08-25T06:40:26;27.20;;;18.60;;
59685;SDS011;45554;51.096;16.976;2022-08-25T06:42:54;28.20;;;20.10;;
59685;SDS011;45554;51.096;16.976;2022-08-25T06:45:22;28.20;;;20.80;;
59685;SDS011;45554;51.096;16.976;2022-08-25T06:47:51;26.40;;;19.40;;
59685;SDS011;45554;51.096;16.976;2022-08-25T06:50:21;34.10;;;20.00;;
59685;SDS011;45554;51.096;16.976;2022-08-25T06:52:49;29.90;;;21.10;;
59685;SDS011;45554;51.096;16.976;2022-08-25T06:55:18;28.60;;;20.40;;
59685;SDS011;45554;51.096;16.976;2022-08-25T06:57:46;25.10;;;18.90;;
59685;SDS011;45554;51.096;16.976;2022-08-25T07:00:14;27.90;;;20.60;;
59685;SDS011;45554;51.096;16.976;2022-08-25T07:02:45;31.10;;;21.70;;
59685;SDS011;45554;51.096;16.976;2022-08-25T07:08:00;25.80;;;20.30;;
59685;SDS011;45554;51.096;16.976;2022-08-25T07:10:28;27.70;;;21.00;;
59685;SDS011;45554;51.096;16.976;2022-08-25T07:12:58;26.20;;;19.70;;
59685;SDS011;45554;51.096;16.976;2022-08-25T07:15:28;25.90;;;19.50;;
59685;SDS011;45554;51.096;16.976;2022-08-25T07:17:56;25.30;;;19.70;;
59685;SDS011;45554;51.096;16.976;2022-08-25T07:25:23;26.90;;;20.30;;
59685;SDS011;45554;51.096;16.976;2022-08-25T07:27:51;28.50;;;20.90;;
59685;SDS011;45554;51.096;16.976;2022-08-25T07:30:29;28.50;;;21.50;;
59685;SDS011;45554;51.096;16.976;2022-08-25T07:32:58;30.70;;;21.60;;
59685;SDS011;45554;51.096;16.976;2022-08-25T07:35:32;29.60;;;23.00;;
59685;SDS011;45554;51.096;16.976;2022-08-25T07:38:04;32.10;;;21.40;;
59685;SDS011;45554;51.096;16.976;2022-08-25T07:40:41;25.50;;;20.90;;
59685;SDS011;45554;51.096;16.976;2022-08-25T07:43:12;32.30;;;20.50;;
59685;SDS011;45554;51.096;16.976;2022-08-25T07:45:39;26.20;;;20.90;;
59685;SDS011;45554;51.096;16.976;2022-08-25T07:48:16;30.70;;;22.20;;
59685;SDS011;45554;51.096;16.976;2022-08-25T07:50:49;31.00;;;22.60;;
59685;SDS011;45554;51.096;16.976;2022-08-25T08:06:58;19.90;;;14.70;;
59685;SDS011;45554;51.096;16.976;2022-08-25T08:09:30;22.20;;;15.40;;
59685;SDS011;45554;51.096;16.976;2022-08-25T08:12:00;18.30;;;12.30;;
59685;SDS011;45554;51.096;16.976;2022-08-25T08:14:28;20.30;;;11.90;;
59685;SDS011;45554;51.096;16.976;2022-08-25T08:19:48;19.60;;;13.40;;
59685;SDS011;45554;51.096;16.976;2022-08-25T08:22:18;21.20;;;12.10;;
59685;SDS011;45554;51.096;16.976;2022-08-25T08:24:46;17.80;;;12.40;;
59685;SDS011;45554;51.096;16.976;2022-08-25T08:27:22;17.10;;;10.80;;
59685;SDS011;45554;51.096;16.976;2022-08-25T08:29:51;17.20;;;10.90;;
59685;SDS011;45554;51.096;16.976;2022-08-25T08:32:23;16.70;;;11.20;;
59685;SDS011;45554;51.096;16.976;2022-08-25T08:35:14;18.10;;;10.90;;
59685;SDS011;45554;51.096;16.976;2022-08-25T08:37:45;16.80;;;8.50;;
59685;SDS011;45554;51.096;16.976;2022-08-25T08:40:18;13.30;;;8.90;;
59685;SDS011;45554;51.096;16.976;2022-08-25T08:42:49;16.10;;;9.90;;
59685;SDS011;45554;51.096;16.976;2022-08-25T08:45:43;16.50;;;9.40;;
59685;SDS011;45554;51.096;16.976;2022-08-25T08:51:25;14.40;;;7.20;;
59685;SDS011;45554;51.096;16.976;2022-08-25T08:54:07;15.60;;;9.80;;
59685;SDS011;45554;51.096;16.976;2022-08-25T08:56:49;16.00;;;9.00;;
59685;SDS011;45554;51.096;16.976;2022-08-25T08:59:30;15.10;;;9.60;;
59685;SDS011;45554;51.096;16.976;2022-08-25T09:02:18;17.30;;;9.30;;
59685;SDS011;45554;51.096;16.976;2022-08-25T09:05:13;15.50;;;9.90;;
59685;SDS011;45554;51.096;16.976;2022-08-25T09:07:54;18.20;;;10.20;;
59685;SDS011;45554;51.096;16.976;2022-08-25T09:11:22;19.20;;;8.70;;
59685;SDS011;45554;51.096;16.976;2022-08-25T09:22:33;21.00;;;8.30;;
59685;SDS011;45554;51.096;16.976;2022-08-25T09:31:16;14.50;;;7.30;;
59685;SDS011;45554;51.096;16.976;2022-08-25T09:33:46;15.10;;;6.80;;
59685;SDS011;45554;51.096;16.976;2022-08-25T09:36:14;16.30;;;7.90;;
59685;SDS011;45554;51.096;16.976;2022-08-25T09:38:46;21.20;;;7.00;;
59685;SDS011;45554;51.096;16.976;2022-08-25T09:41:15;15.60;;;6.20;;
59685;SDS011;45554;51.096;16.976;2022-08-25T09:44:04;12.80;;;6.60;;
59685;SDS011;45554;51.096;16.976;2022-08-25T09:47:04;18.00;;;7.90;;
59685;SDS011;45554;51.096;16.976;2022-08-25T09:49:42;15.80;;;7.70;;
59685;SDS011;45554;51.096;16.976;2022-08-25T09:54:55;16.30;;;7.00;;
59685;SDS011;45554;51.096;16.976;2022-08-25T09:57:31;15.90;;;7.30;;
59685;SDS011;45554;51.096;16.976;2022-08-25T10:00:31;14.00;;;6.50;;
59685;SDS011;45554;51.096;16.976;2022-08-25T10:11:04;14.00;;;5.10;;
59685;SDS011;45554;51.096;16.976;2022-08-25T10:13:37;14.20;;;4.90;;
59685;SDS011;45554;51.096;16.976;2022-08-25T10:21:35;13.80;;;4.50;;
59685;SDS011;45554;51.096;16.976;2022-08-25T10:24:11;16.10;;;5.60;;
59685;SDS011;45554;51.096;16.976;2022-08-25T10:26:49;18.60;;;4.80;;
59685;SDS011;45554;51.096;16.976;2022-08-25T10:29:30;15.70;;;5.20;;
59685;SDS011;45554;51.096;16.976;2022-08-25T10:35:19;14.70;;;4.90;;
59685;SDS011;45554;51.096;16.976;2022-08-25T10:40:34;17.70;;;4.40;;
59685;SDS011;45554;51.096;16.976;2022-08-25T10:43:37;16.00;;;4.50;;
59685;SDS011;45554;51.096;16.976;2022-08-25T10:46:20;16.90;;;4.10;;
59685;SDS011;45554;51.096;16.976;2022-08-25T10:48:57;15.80;;;4.50;;
59685;SDS011;45554;51.096;16.976;2022-08-25T10:54:38;16.00;;;5.40;;
59685;SDS011;45554;51.096;16.976;2022-08-25T10:57:21;16.30;;;4.80;;
59685;SDS011;45554;51.096;16.976;2022-08-25T11:00:07;12.80;;;3.60;;
59685;SDS011;45554;51.096;16.976;2022-08-25T11:05:53;15.00;;;4.70;;
59685;SDS011;45554;51.096;16.976;2022-08-25T11:14:02;17.30;;;4.60;;
59685;SDS011;45554;51.096;16.976;2022-08-25T11:16:42;16.00;;;4.40;;
59685;SDS011;45554;51.096;16.976;2022-08-25T11:19:19;17.00;;;4.50;;
59685;SDS011;45554;51.096;16.976;2022-08-25T11:22:02;15.90;;;5.30;;
59685;SDS011;45554;51.096;16.976;2022-08-25T11:30:14;16.90;;;5.10;;
59685;SDS011;45554;51.096;16.976;2022-08-25T11:32:47;16.80;;;4.50;;
59685;SDS011;45554;51.096;16.976;2022-08-25T11:35:55;19.80;;;5.00;;
59685;SDS011;45554;51.096;16.976;2022-08-25T11:58:14;17.70;;;4.70;;
59685;SDS011;45554;51.096;16.976;2022-08-25T12:01:09;18.90;;;5.00;;
59685;SDS011;45554;51.096;16.976;2022-08-25T12:10:21;20.90;;;6.10;;
59685;SDS011;45554;51.096;16.976;2022-08-25T12:12:35;18.20;;;5.10;;
59685;SDS011;45554;51.096;16.976;2022-08-25T12:18:22;18.80;;;5.00;;
59685;SDS011;45554;51.096;16.976;2022-08-25T12:21:27;17.00;;;4.80;;
59685;SDS011;45554;51.096;16.976;2022-08-25T12:26:32;19.40;;;5.20;;
59685;SDS011;45554;51.096;16.976;2022-08-25T12:34:41;20.00;;;5.30;;
59685;SDS011;45554;51.096;16.976;2022-08-25T12:37:22;16.30;;;4.30;;
59685;SDS011;45554;51.096;16.976;2022-08-25T12:40:02;20.70;;;4.60;;
59685;SDS011;45554;51.096;16.976;2022-08-25T12:45:30;19.50;;;5.60;;
59685;SDS011;45554;51.096;16.976;2022-08-25T12:51:38;19.90;;;5.60;;
59685;SDS011;45554;51.096;16.976;2022-08-25T12:56:39;18.90;;;5.20;;
59685;SDS011;45554;51.096;16.976;2022-08-25T12:59:30;18.00;;;4.50;;
59685;SDS011;45554;51.096;16.976;2022-08-25T13:05:16;19.80;;;4.80;;
59685;SDS011;45554;51.096;16.976;2022-08-25T13:11:22;21.10;;;5.00;;
59685;SDS011;45554;51.096;16.976;2022-08-25T13:14:06;20.30;;;5.00;;
59685;SDS011;45554;51.096;16.976;2022-08-25T13:16:52;19.60;;;4.40;;
59685;SDS011;45554;51.096;16.976;2022-08-25T13:19:21;20.10;;;4.80;;
59685;SDS011;45554;51.096;16.976;2022-08-25T13:21:50;21.00;;;4.70;;
59685;SDS011;45554;51.096;16.976;2022-08-25T13:24:23;20.50;;;4.20;;
59685;SDS011;45554;51.096;16.976;2022-08-25T13:26:55;22.20;;;5.10;;
59685;SDS011;45554;51.096;16.976;2022-08-25T13:29:29;18.80;;;4.20;;
59685;SDS011;45554;51.096;16.976;2022-08-25T13:32:07;20.40;;;4.60;;
59685;SDS011;45554;51.096;16.976;2022-08-25T13:34:41;24.40;;;4.50;;
59685;SDS011;45554;51.096;16.976;2022-08-25T13:37:15;23.80;;;4.60;;
59685;SDS011;45554;51.096;16.976;2022-08-25T13:40:07;23.70;;;4.60;;
59685;SDS011;45554;51.096;16.976;2022-08-25T13:42:38;19.40;;;4.10;;
59685;SDS011;45554;51.096;16.976;2022-08-25T13:45:16;25.00;;;4.70;;
59685;SDS011;45554;51.096;16.976;2022-08-25T13:47:46;23.80;;;4.90;;
59685;SDS011;45554;51.096;16.976;2022-08-25T13:52:55;24.50;;;5.30;;
59685;SDS011;45554;51.096;16.976;2022-08-25T13:55:33;22.10;;;4.50;;
59685;SDS011;45554;51.096;16.976;2022-08-25T13:58:19;17.80;;;3.90;;
59685;SDS011;45554;51.096;16.976;2022-08-25T14:01:16;19.50;;;3.90;;
59685;SDS011;45554;51.096;16.976;2022-08-25T14:04:22;21.00;;;4.20;;
59685;SDS011;45554;51.096;16.976;2022-08-25T14:09:37;21.20;;;4.20;;
59685;SDS011;45554;51.096;16.976;2022-08-25T14:12:29;23.90;;;4.00;;
59685;SDS011;45554;51.096;16.976;2022-08-25T14:17:46;23.00;;;4.80;;
59685;SDS011;45554;51.096;16.976;2022-08-25T14:20:28;22.20;;;4.80;;
59685;SDS011;45554;51.096;16.976;2022-08-25T14:22:59;24.70;;;4.60;;
59685;SDS011;45554;51.096;16.976;2022-08-25T14:25:37;22.10;;;4.30;;
59685;SDS011;45554;51.096;16.976;2022-08-25T14:28:10;25.10;;;5.00;;
59685;SDS011;45554;51.096;16.976;2022-08-25T14:30:47;20.20;;;4.80;;
59685;SDS011;45554;51.096;16.976;2022-08-25T14:33:22;25.70;;;4.30;;
59685;SDS011;45554;51.096;16.976;2022-08-25T14:35:54;24.40;;;5.80;;
59685;SDS011;45554;51.096;16.976;2022-08-25T14:38:25;21.70;;;4.90;;
59685;SDS011;45554;51.096;16.976;2022-08-25T14:40:53;23.40;;;4.70;;
59685;SDS011;45554;51.096;16.976;2022-08-25T14:43:26;23.60;;;5.20;;
59685;SDS011;45554;51.096;16.976;2022-08-25T14:45:59;23.50;;;4.60;;
59685;SDS011;45554;51.096;16.976;2022-08-25T14:48:36;21.90;;;4.80;;
59685;SDS011;45554;51.096;16.976;2022-08-25T14:51:09;20.60;;;4.80;;
59685;SDS011;45554;51.096;16.976;2022-08-25T14:53:38;17.80;;;4.70;;
59685;SDS011;45554;51.096;16.976;2022-08-25T14:56:07;18.20;;;4.60;;
59685;SDS011;45554;51.096;16.976;2022-08-25T14:58:37;21.10;;;4.90;;
59685;SDS011;45554;51.096;16.976;2022-08-25T15:01:21;17.90;;;4.50;;
59685;SDS011;45554;51.096;16.976;2022-08-25T15:04:00;23.20;;;4.40;;
59685;SDS011;45554;51.096;16.976;2022-08-25T15:06:32;18.80;;;4.00;;
59685;SDS011;45554;51.096;16.976;2022-08-25T15:09:03;27.30;;;5.70;;
59685;SDS011;45554;51.096;16.976;2022-08-25T15:11:38;22.10;;;4.00;;
59685;SDS011;45554;51.096;16.976;2022-08-25T15:14:12;24.90;;;5.30;;
59685;SDS011;45554;51.096;16.976;2022-08-25T15:16:47;29.40;;;5.60;;
59685;SDS011;45554;51.096;16.976;2022-08-25T15:19:18;22.40;;;3.80;;
59685;SDS011;45554;51.096;16.976;2022-08-25T15:21:50;20.90;;;5.00;;
59685;SDS011;45554;51.096;16.976;2022-08-25T15:24:19;24.80;;;5.20;;
59685;SDS011;45554;51.096;16.976;2022-08-25T15:26:54;23.00;;;4.50;;
59685;SDS011;45554;51.096;16.976;2022-08-25T15:29:25;23.90;;;4.30;;
59685;SDS011;45554;51.096;16.976;2022-08-25T15:31:57;26.10;;;4.90;;
59685;SDS011;45554;51.096;16.976;2022-08-25T15:34:40;18.80;;;3.80;;
59685;SDS011;45554;51.096;16.976;2022-08-25T15:37:09;23.60;;;4.40;;
59685;SDS011;45554;51.096;16.976;2022-08-25T15:39:40;19.90;;;5.60;;
59685;SDS011;45554;51.096;16.976;2022-08-25T15:42:11;23.80;;;5.30;;
59685;SDS011;45554;51.096;16.976;2022-08-25T15:44:41;27.90;;;4.50;;
59685;SDS011;45554;51.096;16.976;2022-08-25T15:47:20;22.30;;;4.70;;
59685;SDS011;45554;51.096;16.976;2022-08-25T15:49:49;28.80;;;4.90;;
59685;SDS011;45554;51.096;16.976;2022-08-25T15:52:20;23.10;;;4.50;;
59685;SDS011;45554;51.096;16.976;2022-08-25T15:54:48;27.10;;;4.70;;
59685;SDS011;45554;51.096;16.976;2022-08-25T15:57:16;19.30;;;4.60;;
59685;SDS011;45554;51.096;16.976;2022-08-25T15:59:51;28.00;;;4.50;;
59685;SDS011;45554;51.096;16.976;2022-08-25T16:02:20;20.90;;;4.80;;
59685;SDS011;45554;51.096;16.976;2022-08-25T16:04:49;24.40;;;5.20;;
59685;SDS011;45554;51.096;16.976;2022-08-25T16:07:19;21.00;;;5.30;;
59685;SDS011;45554;51.096;16.976;2022-08-25T16:09:48;18.20;;;5.10;;
59685;SDS011;45554;51.096;16.976;2022-08-25T16:12:17;17.00;;;5.10;;
59685;SDS011;45554;51.096;16.976;2022-08-25T16:14:45;17.70;;;4.30;;
59685;SDS011;45554;51.096;16.976;2022-08-25T16:17:18;23.00;;;4.50;;
59685;SDS011;45554;51.096;16.976;2022-08-25T16:19:46;16.30;;;4.00;;
59685;SDS011;45554;51.096;16.976;2022-08-25T16:22:14;20.30;;;4.70;;
59685;SDS011;45554;51.096;16.976;2022-08-25T16:24:43;18.50;;;4.40;;
59685;SDS011;45554;51.096;16.976;2022-08-25T16:27:12;19.50;;;4.60;;
59685;SDS011;45554;51.096;16.976;2022-08-25T16:29:41;17.20;;;4.30;;
59685;SDS011;45554;51.096;16.976;2022-08-25T16:32:11;14.30;;;4.00;;
59685;SDS011;45554;51.096;16.976;2022-08-25T16:34:41;17.50;;;3.90;;
59685;SDS011;45554;51.096;16.976;2022-08-25T16:37:11;25.30;;;5.10;;
59685;SDS011;45554;51.096;16.976;2022-08-25T16:39:39;17.30;;;4.80;;
59685;SDS011;45554;51.096;16.976;2022-08-25T16:42:12;14.90;;;4.80;;
59685;SDS011;45554;51.096;16.976;2022-08-25T16:47:07;21.10;;;5.50;;
59685;SDS011;45554;51.096;16.976;2022-08-25T16:49:40;16.90;;;4.30;;
59685;SDS011;45554;51.096;16.976;2022-08-25T16:52:10;17.10;;;4.70;;
59685;SDS011;45554;51.096;16.976;2022-08-25T16:54:57;25.20;;;4.80;;
59685;SDS011;45554;51.096;16.976;2022-08-25T16:57:44;19.40;;;4.50;;
59685;SDS011;45554;51.096;16.976;2022-08-25T17:00:17;16.10;;;4.00;;
59685;SDS011;45554;51.096;16.976;2022-08-25T17:02:48;23.10;;;4.90;;
59685;SDS011;45554;51.096;16.976;2022-08-25T17:05:18;21.80;;;4.70;;
59685;SDS011;45554;51.096;16.976;2022-08-25T17:07:46;14.30;;;4.90;;
59685;SDS011;45554;51.096;16.976;2022-08-25T17:10:36;21.60;;;5.10;;
59685;SDS011;45554;51.096;16.976;2022-08-25T17:13:05;15.80;;;4.30;;
59685;SDS011;45554;51.096;16.976;2022-08-25T17:18:05;20.40;;;4.40;;
59685;SDS011;45554;51.096;16.976;2022-08-25T17:20:37;15.50;;;3.70;;
59685;SDS011;45554;51.096;16.976;2022-08-25T17:23:06;20.40;;;4.40;;
59685;SDS011;45554;51.096;16.976;2022-08-25T17:25:40;21.90;;;4.90;;
59685;SDS011;45554;51.096;16.976;2022-08-25T17:28:09;19.20;;;4.70;;
59685;SDS011;45554;51.096;16.976;2022-08-25T17:30:39;19.50;;;4.70;;
59685;SDS011;45554;51.096;16.976;2022-08-25T17:33:10;19.60;;;5.00;;
59685;SDS011;45554;51.096;16.976;2022-08-25T17:35:48;18.40;;;5.00;;
59685;SDS011;45554;51.096;16.976;2022-08-25T17:38:20;19.40;;;5.00;;